Sea Centurion — GDIW — position and weather

sailwx.info

Track history (hours):
 
Tides and Currents Weather Stations Pressure Air Temp Water Temp Dewpoint Dewpoint Depression Visibility Wind Speed Wind Dir Waves Ship Positions

Sea Centurion

Last reported at 2017-Dec-15 03:41 UTC. Time now 2017-Dec-15 18:10 UTC.
Position N 38°04' W 000°04'.

Length 182 m; draft 6.3 m.

Type: Cargo ship. MMSI: 234648000.

Date/timePositionNaut miles runAvg speedWind from/ knotsBaromVisibWave heightAir tempDewpointWater temp
2017-Dec-15 03:41N 38°04' W 000°04'2219.0
2017-Dec-15 02:30N 37°46' W 000°20'2818.5
2017-Dec-15 01:00N 37°24' W 000°42'918.1
2017-Dec-15 00:30N 37°18' W 000°51'22318.1
2017-Dec-14 12:08N 36°01' W 005°12'321.0
2017-Dec-14 12:00N 36°00' W 005°15'1020.4
2017-Dec-14 11:30N 35°57' W 005°27'  
2017-Dec-11 23:06N 35°42' W 006°11'111.5
2017-Dec-11 23:00N 35°43' W 006°10'611.7
2017-Dec-11 22:30N 35°48' W 006°06'611.1
2017-Dec-11 22:00N 35°51' W 006°01'510.7
2017-Dec-11 21:30N 35°55' W 005°56'5 9.8
2017-Dec-11 21:01N 35°56' W 005°50'510.2
2017-Dec-11 20:31N 35°57' W 005°44'510.8
2017-Dec-11 20:00N 35°57' W 005°37'611.1
2017-Dec-11 19:31N 35°54' W 005°31'1 2.6
2017-Dec-11 18:58N 35°53' W 005°31'0 0.0
2017-Dec-11 18:28N 35°53' W 005°31'0 0.0
2017-Dec-11 17:58N 35°53' W 005°31'0 0.0
2017-Dec-11 17:30N 35°53' W 005°31'224 9.4
2017-Dec-10 17:34N 37°10' W 001°09'319.5
2017-Dec-10 17:27N 37°12' W 001°07'919.4
2017-Dec-10 17:00N 37°18' W 000°59'1019.4
2017-Dec-10 16:30N 37°24' W 000°50'919.1
2017-Dec-10 16:01N 37°30' W 000°41'918.5
2017-Dec-10 15:31N 37°36' W 000°32'918.9
2017-Dec-10 15:00N 37°44' W 000°26'1019.1
2017-Dec-10 14:29N 37°53' W 000°19'919.1
2017-Dec-10 14:01N 38°00' W 000°12'38720.7
2017-Dec-09 19:17N 43°05' E 005°02'621.5
2017-Dec-09 19:01N 43°10' E 005°06'1120.9
2017-Dec-09 18:30N 43°19' E 005°14'510.2
2017-Dec-09 18:01N 43°20' E 005°21'1 1.0
2017-Dec-09 17:03N 43°19' E 005°22'0 0.0
2017-Dec-09 16:33N 43°19' E 005°22'0 0.0
2017-Dec-09 16:15N 43°19' E 005°22'0 0.0
2017-Dec-09 14:51N 43°19' E 005°22'0 0.0
2017-Dec-09 14:21N 43°19' E 005°22'0 0.0
2017-Dec-09 13:51N 43°19' E 005°22'0 0.0
2017-Dec-09 13:03N 43°19' E 005°22'0 0.0
2017-Dec-09 12:33N 43°19' E 005°22'0 0.0
2017-Dec-09 12:09N 43°19' E 005°22'0 0.0
2017-Dec-09 11:51N 43°19' E 005°22'0 0.0
2017-Dec-09 11:09N 43°19' E 005°22'0 0.0
2017-Dec-09 10:51N 43°19' E 005°22'0 0.0
2017-Dec-09 10:27N 43°19' E 005°22'0 0.0
2017-Dec-09 09:57N 43°19' E 005°22'0 0.0
2017-Dec-09 09:27N 43°19' E 005°22'0 0.0
2017-Dec-09 08:57N 43°19' E 005°22'0 0.0
2017-Dec-09 05:39N 43°19' E 005°22'0 0.0
2017-Dec-09 05:23N 43°19' E 005°22'0 0.5
2017-Dec-09 05:00N 43°19' E 005°21'3 6.2
2017-Dec-09 04:30N 43°21' E 005°18'815.1
2017-Dec-09 04:00N 43°16' E 005°11'917.9
2017-Dec-09 03:30N 43°09' E 005°02'1121.6
2017-Dec-09 03:00N 43°06' E 004°48'1121.3
2017-Dec-09 02:30N 43°01' E 004°35'33115.7
2017-Dec-08 05:21N 38°32' E 000°20'513.9
2017-Dec-08 05:00N 38°28' E 000°17'814.1
2017-Dec-08 04:28N 38°22' E 000°11'3714.2
2017-Dec-08 01:52N 37°51' W 000°14'713.8
2017-Dec-08 01:23N 37°45' W 000°19'513.6
2017-Dec-08 01:00N 37°41' W 000°23'713.6
2017-Dec-08 00:30N 37°35' W 000°28'713.4
2017-Dec-08 00:00N 37°30' W 000°33'713.3
2017-Dec-07 23:30N 37°26' W 000°40'612.9
2017-Dec-07 23:00N 37°22' W 000°46'712.8
2017-Dec-07 22:28N 37°17' W 000°53'  
Track history (hours):
 
Tides and Currents Weather Stations Pressure Air Temp Water Temp Dewpoint Dewpoint Depression Visibility Wind Speed Wind Dir Waves Ship Positions

Sea Centurion

Last reported at 2017-Dec-15 03:41 UTC. Time now 2017-Dec-15 18:10 UTC.
Position N 38°04' W 000°04'.

Length 182 m; draft 6.3 m.

Type: Cargo ship. MMSI: 234648000.

Date/timePositionNaut miles runAvg speedWind from/ knotsBaromVisibWave heightAir tempDewpointWater temp
2017-Dec-15 03:41N 38°04' W 000°04'2219.0
2017-Dec-15 02:30N 37°46' W 000°20'2818.5
2017-Dec-15 01:00N 37°24' W 000°42'918.1
2017-Dec-15 00:30N 37°18' W 000°51'22318.1
2017-Dec-14 12:08N 36°01' W 005°12'321.0
2017-Dec-14 12:00N 36°00' W 005°15'1020.4
2017-Dec-14 11:30N 35°57' W 005°27'  
2017-Dec-11 23:06N 35°42' W 006°11'111.5
2017-Dec-11 23:00N 35°43' W 006°10'611.7
2017-Dec-11 22:30N 35°48' W 006°06'611.1
2017-Dec-11 22:00N 35°51' W 006°01'510.7
2017-Dec-11 21:30N 35°55' W 005°56'5 9.8
2017-Dec-11 21:01N 35°56' W 005°50'510.2
2017-Dec-11 20:31N 35°57' W 005°44'510.8
2017-Dec-11 20:00N 35°57' W 005°37'611.1
2017-Dec-11 19:31N 35°54' W 005°31'1 2.6
2017-Dec-11 18:58N 35°53' W 005°31'0 0.0
2017-Dec-11 18:28N 35°53' W 005°31'0 0.0
2017-Dec-11 17:58N 35°53' W 005°31'0 0.0
2017-Dec-11 17:30N 35°53' W 005°31'224 9.4
2017-Dec-10 17:34N 37°10' W 001°09'319.5
2017-Dec-10 17:27N 37°12' W 001°07'919.4
2017-Dec-10 17:00N 37°18' W 000°59'1019.4
2017-Dec-10 16:30N 37°24' W 000°50'919.1
2017-Dec-10 16:01N 37°30' W 000°41'918.5
2017-Dec-10 15:31N 37°36' W 000°32'918.9
2017-Dec-10 15:00N 37°44' W 000°26'1019.1
2017-Dec-10 14:29N 37°53' W 000°19'919.1
2017-Dec-10 14:01N 38°00' W 000°12'38720.7
2017-Dec-09 19:17N 43°05' E 005°02'621.5
2017-Dec-09 19:01N 43°10' E 005°06'1120.9
2017-Dec-09 18:30N 43°19' E 005°14'510.2
2017-Dec-09 18:01N 43°20' E 005°21'1 1.0
2017-Dec-09 17:03N 43°19' E 005°22'0 0.0
2017-Dec-09 16:33N 43°19' E 005°22'0 0.0
2017-Dec-09 16:15N 43°19' E 005°22'0 0.0
2017-Dec-09 14:51N 43°19' E 005°22'0 0.0
2017-Dec-09 14:21N 43°19' E 005°22'0 0.0
2017-Dec-09 13:51N 43°19' E 005°22'0 0.0
2017-Dec-09 13:03N 43°19' E 005°22'0 0.0
2017-Dec-09 12:33N 43°19' E 005°22'0 0.0
2017-Dec-09 12:09N 43°19' E 005°22'0 0.0
2017-Dec-09 11:51N 43°19' E 005°22'0 0.0
2017-Dec-09 11:09N 43°19' E 005°22'0 0.0
2017-Dec-09 10:51N 43°19' E 005°22'0 0.0
2017-Dec-09 10:27N 43°19' E 005°22'0 0.0
2017-Dec-09 09:57N 43°19' E 005°22'0 0.0
2017-Dec-09 09:27N 43°19' E 005°22'0 0.0
2017-Dec-09 08:57N 43°19' E 005°22'0 0.0
2017-Dec-09 05:39N 43°19' E 005°22'0 0.0
2017-Dec-09 05:23N 43°19' E 005°22'0 0.5
2017-Dec-09 05:00N 43°19' E 005°21'3 6.2
2017-Dec-09 04:30N 43°21' E 005°18'815.1
2017-Dec-09 04:00N 43°16' E 005°11'917.9
2017-Dec-09 03:30N 43°09' E 005°02'1121.6
2017-Dec-09 03:00N 43°06' E 004°48'1121.3
2017-Dec-09 02:30N 43°01' E 004°35'33115.7
2017-Dec-08 05:21N 38°32' E 000°20'513.9
2017-Dec-08 05:00N 38°28' E 000°17'814.1
2017-Dec-08 04:28N 38°22' E 000°11'3714.2
2017-Dec-08 01:52N 37°51' W 000°14'713.8
2017-Dec-08 01:23N 37°45' W 000°19'513.6
2017-Dec-08 01:00N 37°41' W 000°23'713.6
2017-Dec-08 00:30N 37°35' W 000°28'713.4
2017-Dec-08 00:00N 37°30' W 000°33'713.3
2017-Dec-07 23:30N 37°26' W 000°40'612.9
2017-Dec-07 23:00N 37°22' W 000°46'712.8
2017-Dec-07 22:28N 37°17' W 000°53'  

Dump ship's entire track history